sensor_id;sensor_type;location;lat;lon;timestamp;P1;durP1;ratioP1;P2;durP2;ratioP2
42690;SDS011;28306;55.744;37.578;2022-09-06T00:01:36;0.88;;;0.43;;
42690;SDS011;28306;55.744;37.578;2022-09-06T00:04:03;0.70;;;0.30;;
42690;SDS011;28306;55.744;37.578;2022-09-06T00:06:28;0.63;;;0.50;;
42690;SDS011;28306;55.744;37.578;2022-09-06T00:08:54;1.33;;;0.50;;
42690;SDS011;28306;55.744;37.578;2022-09-06T00:11:20;0.60;;;0.35;;
42690;SDS011;28306;55.744;37.578;2022-09-06T00:13:46;0.90;;;0.40;;
42690;SDS011;28306;55.744;37.578;2022-09-06T00:16:14;0.57;;;0.28;;
42690;SDS011;28306;55.744;37.578;2022-09-06T00:18:41;0.43;;;0.20;;
42690;SDS011;28306;55.744;37.578;2022-09-06T00:21:18;0.20;;;0.17;;
42690;SDS011;28306;55.744;37.578;2022-09-06T00:23:45;0.80;;;0.50;;
42690;SDS011;28306;55.744;37.578;2022-09-06T00:26:11;0.35;;;0.28;;
42690;SDS011;28306;55.744;37.578;2022-09-06T00:28:38;0.77;;;0.20;;
42690;SDS011;28306;55.744;37.578;2022-09-06T00:31:08;0.88;;;0.50;;
42690;SDS011;28306;55.744;37.578;2022-09-06T00:33:35;0.50;;;0.25;;
42690;SDS011;28306;55.744;37.578;2022-09-06T00:36:00;0.57;;;0.30;;
42690;SDS011;28306;55.744;37.578;2022-09-06T00:38:26;0.57;;;0.38;;
42690;SDS011;28306;55.744;37.578;2022-09-06T00:40:52;0.43;;;0.28;;
42690;SDS011;28306;55.744;37.578;2022-09-06T00:43:21;1.08;;;0.40;;
42690;SDS011;28306;55.744;37.578;2022-09-06T00:45:47;0.70;;;0.30;;
42690;SDS011;28306;55.744;37.578;2022-09-06T00:48:13;0.73;;;0.30;;
42690;SDS011;28306;55.744;37.578;2022-09-06T00:50:41;0.70;;;0.30;;
42690;SDS011;28306;55.744;37.578;2022-09-06T00:53:08;0.63;;;0.30;;
42690;SDS011;28306;55.744;37.578;2022-09-06T00:55:34;0.50;;;0.30;;
42690;SDS011;28306;55.744;37.578;2022-09-06T00:58:00;0.43;;;0.30;;
42690;SDS011;28306;55.744;37.578;2022-09-06T01:00:27;0.77;;;0.30;;
42690;SDS011;28306;55.744;37.578;2022-09-06T01:02:52;0.63;;;0.30;;
42690;SDS011;28306;55.744;37.578;2022-09-06T01:05:18;0.32;;;0.20;;
42690;SDS011;28306;55.744;37.578;2022-09-06T01:18:30;0.40;;;0.25;;
42690;SDS011;28306;55.744;37.578;2022-09-06T01:35:25;0.30;;;0.22;;
42690;SDS011;28306;55.744;37.578;2022-09-06T01:37:58;0.43;;;0.28;;
42690;SDS011;28306;55.744;37.578;2022-09-06T01:40:24;0.77;;;0.40;;
42690;SDS011;28306;55.744;37.578;2022-09-06T01:42:51;1.20;;;0.30;;
42690;SDS011;28306;55.744;37.578;2022-09-06T01:45:18;0.52;;;0.20;;
42690;SDS011;28306;55.744;37.578;2022-09-06T01:47:58;0.90;;;0.50;;
42690;SDS011;28306;55.744;37.578;2022-09-06T01:56:07;0.73;;;0.40;;
42690;SDS011;28306;55.744;37.578;2022-09-06T02:01:20;1.00;;;0.30;;
42690;SDS011;28306;55.744;37.578;2022-09-06T02:06:38;0.28;;;0.20;;
42690;SDS011;28306;55.744;37.578;2022-09-06T02:09:10;0.70;;;0.30;;
42690;SDS011;28306;55.744;37.578;2022-09-06T02:11:44;0.50;;;0.30;;
42690;SDS011;28306;55.744;37.578;2022-09-06T02:14:16;0.30;;;0.23;;
42690;SDS011;28306;55.744;37.578;2022-09-06T02:16:47;0.50;;;0.30;;
42690;SDS011;28306;55.744;37.578;2022-09-06T02:19:19;0.40;;;0.20;;
42690;SDS011;28306;55.744;37.578;2022-09-06T02:21:51;1.13;;;0.30;;
42690;SDS011;28306;55.744;37.578;2022-09-06T02:24:25;0.40;;;0.30;;
42690;SDS011;28306;55.744;37.578;2022-09-06T02:26:54;0.50;;;0.20;;
42690;SDS011;28306;55.744;37.578;2022-09-06T02:29:20;0.73;;;0.38;;
42690;SDS011;28306;55.744;37.578;2022-09-06T02:32:22;0.82;;;0.32;;
42690;SDS011;28306;55.744;37.578;2022-09-06T02:34:44;0.43;;;0.30;;
42690;SDS011;28306;55.744;37.578;2022-09-06T02:37:11;0.45;;;0.30;;
42690;SDS011;28306;55.744;37.578;2022-09-06T02:39:37;0.75;;;0.40;;
42690;SDS011;28306;55.744;37.578;2022-09-06T02:42:03;0.45;;;0.22;;
42690;SDS011;28306;55.744;37.578;2022-09-06T02:44:30;0.85;;;0.32;;
42690;SDS011;28306;55.744;37.578;2022-09-06T02:46:56;1.15;;;0.40;;
42690;SDS011;28306;55.744;37.578;2022-09-06T02:49:23;0.25;;;0.20;;
42690;SDS011;28306;55.744;37.578;2022-09-06T02:51:49;0.60;;;0.30;;
42690;SDS011;28306;55.744;37.578;2022-09-06T02:54:15;0.55;;;0.35;;
42690;SDS011;28306;55.744;37.578;2022-09-06T02:56:40;1.05;;;0.30;;
42690;SDS011;28306;55.744;37.578;2022-09-06T02:59:06;0.45;;;0.30;;
42690;SDS011;28306;55.744;37.578;2022-09-06T03:01:32;0.38;;;0.22;;
42690;SDS011;28306;55.744;37.578;2022-09-06T03:03:58;1.00;;;0.30;;
42690;SDS011;28306;55.744;37.578;2022-09-06T03:06:23;1.05;;;0.30;;
42690;SDS011;28306;55.744;37.578;2022-09-06T03:08:49;0.85;;;0.40;;
42690;SDS011;28306;55.744;37.578;2022-09-06T03:11:15;0.60;;;0.30;;
42690;SDS011;28306;55.744;37.578;2022-09-06T03:13:41;0.82;;;0.30;;
42690;SDS011;28306;55.744;37.578;2022-09-06T03:16:07;0.75;;;0.50;;
42690;SDS011;28306;55.744;37.578;2022-09-06T03:18:33;0.55;;;0.32;;
42690;SDS011;28306;55.744;37.578;2022-09-06T03:20:58;0.43;;;0.20;;
42690;SDS011;28306;55.744;37.578;2022-09-06T03:23:24;0.65;;;0.32;;
42690;SDS011;28306;55.744;37.578;2022-09-06T03:25:52;0.68;;;0.30;;
42690;SDS011;28306;55.744;37.578;2022-09-06T03:28:18;0.55;;;0.28;;
42690;SDS011;28306;55.744;37.578;2022-09-06T03:30:45;0.90;;;0.30;;
42690;SDS011;28306;55.744;37.578;2022-09-06T03:33:12;0.50;;;0.30;;
42690;SDS011;28306;55.744;37.578;2022-09-06T03:35:37;0.43;;;0.22;;
42690;SDS011;28306;55.744;37.578;2022-09-06T03:38:03;0.60;;;0.30;;
42690;SDS011;28306;55.744;37.578;2022-09-06T03:40:29;0.65;;;0.40;;
42690;SDS011;28306;55.744;37.578;2022-09-06T03:42:54;0.93;;;0.50;;
42690;SDS011;28306;55.744;37.578;2022-09-06T03:45:20;0.55;;;0.40;;
42690;SDS011;28306;55.744;37.578;2022-09-06T03:47:45;1.10;;;0.30;;
42690;SDS011;28306;55.744;37.578;2022-09-06T03:50:11;1.35;;;0.50;;
42690;SDS011;28306;55.744;37.578;2022-09-06T03:52:37;1.67;;;0.50;;
42690;SDS011;28306;55.744;37.578;2022-09-06T03:55:03;1.05;;;0.52;;
42690;SDS011;28306;55.744;37.578;2022-09-06T03:57:29;3.20;;;0.50;;
42690;SDS011;28306;55.744;37.578;2022-09-06T03:59:55;2.08;;;0.57;;
42690;SDS011;28306;55.744;37.578;2022-09-06T04:02:20;3.00;;;0.60;;
42690;SDS011;28306;55.744;37.578;2022-09-06T04:04:46;1.90;;;0.60;;
42690;SDS011;28306;55.744;37.578;2022-09-06T04:07:12;1.95;;;0.88;;
42690;SDS011;28306;55.744;37.578;2022-09-06T04:09:37;1.27;;;0.68;;
42690;SDS011;28306;55.744;37.578;2022-09-06T04:12:03;1.00;;;0.55;;
42690;SDS011;28306;55.744;37.578;2022-09-06T04:14:29;1.95;;;0.68;;
42690;SDS011;28306;55.744;37.578;2022-09-06T04:16:54;1.73;;;0.68;;
42690;SDS011;28306;55.744;37.578;2022-09-06T04:19:20;2.65;;;0.73;;
42690;SDS011;28306;55.744;37.578;2022-09-06T04:21:46;2.08;;;0.50;;
42690;SDS011;28306;55.744;37.578;2022-09-06T04:24:11;1.60;;;0.65;;
42690;SDS011;28306;55.744;37.578;2022-09-06T04:26:37;1.52;;;0.70;;
42690;SDS011;28306;55.744;37.578;2022-09-06T04:29:03;1.83;;;0.82;;
42690;SDS011;28306;55.744;37.578;2022-09-06T04:31:28;0.95;;;0.50;;
42690;SDS011;28306;55.744;37.578;2022-09-06T04:33:54;1.25;;;0.73;;
42690;SDS011;28306;55.744;37.578;2022-09-06T04:36:20;1.42;;;0.60;;
42690;SDS011;28306;55.744;37.578;2022-09-06T04:38:45;0.80;;;0.40;;
42690;SDS011;28306;55.744;37.578;2022-09-06T04:41:12;1.27;;;0.65;;
42690;SDS011;28306;55.744;37.578;2022-09-06T04:43:40;1.67;;;0.68;;
42690;SDS011;28306;55.744;37.578;2022-09-06T04:46:23;2.65;;;0.77;;
42690;SDS011;28306;55.744;37.578;2022-09-06T04:48:50;1.25;;;0.60;;
42690;SDS011;28306;55.744;37.578;2022-09-06T04:51:17;1.08;;;0.55;;
42690;SDS011;28306;55.744;37.578;2022-09-06T04:53:43;1.58;;;0.50;;
42690;SDS011;28306;55.744;37.578;2022-09-06T04:56:12;1.77;;;0.75;;
42690;SDS011;28306;55.744;37.578;2022-09-06T04:58:41;4.72;;;0.82;;
42690;SDS011;28306;55.744;37.578;2022-09-06T05:01:08;4.00;;;0.90;;
42690;SDS011;28306;55.744;37.578;2022-09-06T05:03:33;4.80;;;0.70;;
42690;SDS011;28306;55.744;37.578;2022-09-06T05:06:02;1.75;;;0.60;;
42690;SDS011;28306;55.744;37.578;2022-09-06T05:08:29;2.08;;;0.60;;
42690;SDS011;28306;55.744;37.578;2022-09-06T05:10:55;2.15;;;0.93;;
42690;SDS011;28306;55.744;37.578;2022-09-06T05:13:20;2.30;;;0.63;;
42690;SDS011;28306;55.744;37.578;2022-09-06T05:15:46;2.63;;;0.60;;
42690;SDS011;28306;55.744;37.578;2022-09-06T05:18:11;6.15;;;0.70;;
42690;SDS011;28306;55.744;37.578;2022-09-06T05:20:37;1.13;;;0.52;;
42690;SDS011;28306;55.744;37.578;2022-09-06T05:23:02;1.27;;;0.70;;
42690;SDS011;28306;55.744;37.578;2022-09-06T05:25:28;1.63;;;0.50;;
42690;SDS011;28306;55.744;37.578;2022-09-06T05:27:54;1.13;;;0.45;;
42690;SDS011;28306;55.744;37.578;2022-09-06T05:30:19;1.80;;;0.70;;
42690;SDS011;28306;55.744;37.578;2022-09-06T05:32:45;1.15;;;0.50;;
42690;SDS011;28306;55.744;37.578;2022-09-06T05:35:11;1.30;;;0.60;;
42690;SDS011;28306;55.744;37.578;2022-09-06T05:37:36;10.32;;;1.10;;
42690;SDS011;28306;55.744;37.578;2022-09-06T05:40:02;18.42;;;1.83;;
42690;SDS011;28306;55.744;37.578;2022-09-06T05:42:28;14.00;;;0.98;;
42690;SDS011;28306;55.744;37.578;2022-09-06T05:44:53;13.90;;;0.90;;
42690;SDS011;28306;55.744;37.578;2022-09-06T05:47:19;17.13;;;1.85;;
42690;SDS011;28306;55.744;37.578;2022-09-06T05:49:44;15.55;;;1.30;;
42690;SDS011;28306;55.744;37.578;2022-09-06T05:52:10;3.97;;;0.95;;
42690;SDS011;28306;55.744;37.578;2022-09-06T05:54:36;10.93;;;1.20;;
42690;SDS011;28306;55.744;37.578;2022-09-06T05:57:07;12.73;;;1.27;;
42690;SDS011;28306;55.744;37.578;2022-09-06T05:59:38;10.95;;;1.00;;
42690;SDS011;28306;55.744;37.578;2022-09-06T06:02:04;13.32;;;1.33;;
42690;SDS011;28306;55.744;37.578;2022-09-06T06:04:30;3.38;;;1.02;;
42690;SDS011;28306;55.744;37.578;2022-09-06T06:06:55;11.82;;;1.08;;
42690;SDS011;28306;55.744;37.578;2022-09-06T06:09:21;12.23;;;1.50;;
42690;SDS011;28306;55.744;37.578;2022-09-06T06:11:47;20.65;;;2.45;;
42690;SDS011;28306;55.744;37.578;2022-09-06T06:14:12;11.02;;;0.98;;
42690;SDS011;28306;55.744;37.578;2022-09-06T06:16:38;23.65;;;1.50;;
42690;SDS011;28306;55.744;37.578;2022-09-06T06:19:04;4.38;;;1.00;;
42690;SDS011;28306;55.744;37.578;2022-09-06T06:21:30;9.23;;;1.20;;
42690;SDS011;28306;55.744;37.578;2022-09-06T06:23:58;13.45;;;2.15;;
42690;SDS011;28306;55.744;37.578;2022-09-06T06:26:28;11.10;;;1.08;;
42690;SDS011;28306;55.744;37.578;2022-09-06T06:28:59;3.03;;;1.00;;
42690;SDS011;28306;55.744;37.578;2022-09-06T06:31:30;8.45;;;0.98;;
42690;SDS011;28306;55.744;37.578;2022-09-06T06:33:57;5.68;;;0.88;;
42690;SDS011;28306;55.744;37.578;2022-09-06T06:36:24;10.60;;;0.98;;
42690;SDS011;28306;55.744;37.578;2022-09-06T06:38:52;7.57;;;0.88;;
42690;SDS011;28306;55.744;37.578;2022-09-06T06:41:20;5.93;;;0.65;;
42690;SDS011;28306;55.744;37.578;2022-09-06T06:43:54;5.75;;;0.93;;
42690;SDS011;28306;55.744;37.578;2022-09-06T06:48:48;4.07;;;0.60;;
42690;SDS011;28306;55.744;37.578;2022-09-06T06:51:15;8.90;;;1.25;;
42690;SDS011;28306;55.744;37.578;2022-09-06T06:53:43;1.65;;;0.65;;
42690;SDS011;28306;55.744;37.578;2022-09-06T06:56:31;2.65;;;0.45;;
42690;SDS011;28306;55.744;37.578;2022-09-06T06:58:59;1.58;;;0.50;;
42690;SDS011;28306;55.744;37.578;2022-09-06T07:01:27;3.90;;;0.60;;
42690;SDS011;28306;55.744;37.578;2022-09-06T07:03:54;3.78;;;0.80;;
42690;SDS011;28306;55.744;37.578;2022-09-06T07:06:20;6.43;;;0.60;;
42690;SDS011;28306;55.744;37.578;2022-09-06T07:08:47;4.63;;;0.70;;
42690;SDS011;28306;55.744;37.578;2022-09-06T07:11:13;6.60;;;1.23;;
42690;SDS011;28306;55.744;37.578;2022-09-06T07:13:40;2.53;;;0.68;;
42690;SDS011;28306;55.744;37.578;2022-09-06T07:16:13;3.47;;;0.50;;
42690;SDS011;28306;55.744;37.578;2022-09-06T07:18:41;4.82;;;0.57;;
42690;SDS011;28306;55.744;37.578;2022-09-06T07:21:08;3.03;;;1.00;;
42690;SDS011;28306;55.744;37.578;2022-09-06T07:23:36;3.05;;;0.70;;
42690;SDS011;28306;55.744;37.578;2022-09-06T07:26:02;5.05;;;0.82;;
42690;SDS011;28306;55.744;37.578;2022-09-06T07:28:27;1.52;;;0.50;;
42690;SDS011;28306;55.744;37.578;2022-09-06T07:30:53;5.05;;;0.73;;
42690;SDS011;28306;55.744;37.578;2022-09-06T07:33:21;6.22;;;0.90;;
42690;SDS011;28306;55.744;37.578;2022-09-06T07:35:57;1.73;;;0.50;;
42690;SDS011;28306;55.744;37.578;2022-09-06T07:38:25;3.63;;;0.68;;
42690;SDS011;28306;55.744;37.578;2022-09-06T07:40:52;2.90;;;0.75;;
42690;SDS011;28306;55.744;37.578;2022-09-06T07:43:19;1.50;;;0.50;;
42690;SDS011;28306;55.744;37.578;2022-09-06T07:45:44;5.03;;;0.77;;
42690;SDS011;28306;55.744;37.578;2022-09-06T07:48:10;2.45;;;1.02;;
42690;SDS011;28306;55.744;37.578;2022-09-06T07:50:35;1.35;;;0.60;;
42690;SDS011;28306;55.744;37.578;2022-09-06T07:53:04;3.92;;;0.60;;
42690;SDS011;28306;55.744;37.578;2022-09-06T07:55:30;3.13;;;0.47;;
42690;SDS011;28306;55.744;37.578;2022-09-06T07:57:56;1.15;;;0.55;;
42690;SDS011;28306;55.744;37.578;2022-09-06T08:00:22;2.17;;;0.35;;
42690;SDS011;28306;55.744;37.578;2022-09-06T08:02:47;2.88;;;0.80;;
42690;SDS011;28306;55.744;37.578;2022-09-06T08:05:13;1.27;;;0.50;;
42690;SDS011;28306;55.744;37.578;2022-09-06T08:07:38;2.95;;;0.70;;
42690;SDS011;28306;55.744;37.578;2022-09-06T08:10:04;2.58;;;0.70;;
42690;SDS011;28306;55.744;37.578;2022-09-06T08:12:30;1.83;;;0.60;;
42690;SDS011;28306;55.744;37.578;2022-09-06T08:14:55;0.70;;;0.40;;
42690;SDS011;28306;55.744;37.578;2022-09-06T08:17:21;1.95;;;0.45;;
42690;SDS011;28306;55.744;37.578;2022-09-06T08:19:47;5.28;;;0.65;;
42690;SDS011;28306;55.744;37.578;2022-09-06T08:22:13;2.40;;;0.70;;
42690;SDS011;28306;55.744;37.578;2022-09-06T08:24:39;3.67;;;0.60;;
42690;SDS011;28306;55.744;37.578;2022-09-06T08:27:05;7.43;;;0.98;;
42690;SDS011;28306;55.744;37.578;2022-09-06T08:29:33;9.75;;;0.90;;
42690;SDS011;28306;55.744;37.578;2022-09-06T08:31:59;6.07;;;0.80;;
42690;SDS011;28306;55.744;37.578;2022-09-06T08:34:25;5.53;;;0.80;;
42690;SDS011;28306;55.744;37.578;2022-09-06T08:36:51;7.10;;;0.90;;
42690;SDS011;28306;55.744;37.578;2022-09-06T08:39:17;4.07;;;0.70;;
42690;SDS011;28306;55.744;37.578;2022-09-06T08:46:57;7.47;;;0.70;;
42690;SDS011;28306;55.744;37.578;2022-09-06T08:49:26;4.85;;;0.65;;
42690;SDS011;28306;55.744;37.578;2022-09-06T08:52:06;2.13;;;0.68;;
42690;SDS011;28306;55.744;37.578;2022-09-06T09:00:37;1.98;;;0.57;;
42690;SDS011;28306;55.744;37.578;2022-09-06T09:03:13;2.80;;;0.70;;
42690;SDS011;28306;55.744;37.578;2022-09-06T09:05:50;1.35;;;0.55;;
42690;SDS011;28306;55.744;37.578;2022-09-06T09:08:28;9.77;;;1.00;;
42690;SDS011;28306;55.744;37.578;2022-09-06T09:10:58;1.85;;;0.50;;
42690;SDS011;28306;55.744;37.578;2022-09-06T09:13:33;4.00;;;1.00;;
42690;SDS011;28306;55.744;37.578;2022-09-06T09:16:03;7.93;;;1.25;;
42690;SDS011;28306;55.744;37.578;2022-09-06T09:18:31;18.77;;;1.88;;
42690;SDS011;28306;55.744;37.578;2022-09-06T09:21:00;12.30;;;1.20;;
42690;SDS011;28306;55.744;37.578;2022-09-06T09:23:26;11.85;;;1.40;;
42690;SDS011;28306;55.744;37.578;2022-09-06T09:25:55;11.75;;;1.25;;
42690;SDS011;28306;55.744;37.578;2022-09-06T09:28:26;14.88;;;1.05;;
42690;SDS011;28306;55.744;37.578;2022-09-06T09:30:53;9.82;;;1.35;;
42690;SDS011;28306;55.744;37.578;2022-09-06T09:33:27;19.85;;;1.65;;
42690;SDS011;28306;55.744;37.578;2022-09-06T09:35:55;24.60;;;1.80;;
42690;SDS011;28306;55.744;37.578;2022-09-06T09:38:29;15.10;;;1.58;;
42690;SDS011;28306;55.744;37.578;2022-09-06T09:41:00;14.93;;;1.27;;
42690;SDS011;28306;55.744;37.578;2022-09-06T09:43:30;24.85;;;2.45;;
42690;SDS011;28306;55.744;37.578;2022-09-06T09:46:09;41.15;;;2.67;;
42690;SDS011;28306;55.744;37.578;2022-09-06T09:49:29;37.63;;;2.95;;
42690;SDS011;28306;55.744;37.578;2022-09-06T09:54:08;38.28;;;2.67;;
42690;SDS011;28306;55.744;37.578;2022-09-06T09:56:40;30.80;;;2.95;;
42690;SDS011;28306;55.744;37.578;2022-09-06T10:01:48;23.33;;;3.05;;
42690;SDS011;28306;55.744;37.578;2022-09-06T10:04:17;38.03;;;2.75;;
42690;SDS011;28306;55.744;37.578;2022-09-06T10:07:05;28.08;;;2.90;;
42690;SDS011;28306;55.744;37.578;2022-09-06T10:10:02;27.35;;;3.67;;
42690;SDS011;28306;55.744;37.578;2022-09-06T10:15:09;27.55;;;2.60;;
42690;SDS011;28306;55.744;37.578;2022-09-06T10:20:12;32.25;;;2.63;;
42690;SDS011;28306;55.744;37.578;2022-09-06T10:25:35;11.57;;;1.27;;
42690;SDS011;28306;55.744;37.578;2022-09-06T10:36:39;8.75;;;1.77;;
42690;SDS011;28306;55.744;37.578;2022-09-06T10:47:49;18.13;;;1.45;;
42690;SDS011;28306;55.744;37.578;2022-09-06T10:50:43;18.83;;;2.20;;
42690;SDS011;28306;55.744;37.578;2022-09-06T10:56:04;24.17;;;2.47;;
42690;SDS011;28306;55.744;37.578;2022-09-06T10:58:36;19.17;;;1.98;;
42690;SDS011;28306;55.744;37.578;2022-09-06T11:01:17;13.10;;;1.50;;
42690;SDS011;28306;55.744;37.578;2022-09-06T11:03:54;11.43;;;1.52;;
42690;SDS011;28306;55.744;37.578;2022-09-06T11:06:26;16.77;;;2.08;;
42690;SDS011;28306;55.744;37.578;2022-09-06T11:09:06;7.93;;;0.98;;
42690;SDS011;28306;55.744;37.578;2022-09-06T11:14:19;16.38;;;1.20;;
42690;SDS011;28306;55.744;37.578;2022-09-06T11:17:11;14.68;;;1.73;;
42690;SDS011;28306;55.744;37.578;2022-09-06T11:25:21;6.05;;;1.05;;
42690;SDS011;28306;55.744;37.578;2022-09-06T11:27:58;10.05;;;1.10;;
42690;SDS011;28306;55.744;37.578;2022-09-06T11:30:27;6.38;;;1.20;;
42690;SDS011;28306;55.744;37.578;2022-09-06T11:33:08;11.10;;;1.00;;
42690;SDS011;28306;55.744;37.578;2022-09-06T11:35:46;4.32;;;0.80;;
42690;SDS011;28306;55.744;37.578;2022-09-06T11:40:45;5.10;;;0.80;;
42690;SDS011;28306;55.744;37.578;2022-09-06T11:43:17;4.22;;;0.82;;
42690;SDS011;28306;55.744;37.578;2022-09-06T11:46:03;6.35;;;0.80;;
42690;SDS011;28306;55.744;37.578;2022-09-06T11:48:30;7.35;;;1.27;;
42690;SDS011;28306;55.744;37.578;2022-09-06T11:58:44;3.92;;;0.88;;
42690;SDS011;28306;55.744;37.578;2022-09-06T12:08:44;15.77;;;1.67;;
42690;SDS011;28306;55.744;37.578;2022-09-06T12:11:27;10.05;;;1.20;;
42690;SDS011;28306;55.744;37.578;2022-09-06T12:14:00;4.65;;;0.95;;
42690;SDS011;28306;55.744;37.578;2022-09-06T12:17:17;9.07;;;0.80;;
42690;SDS011;28306;55.744;37.578;2022-09-06T12:25:05;8.75;;;1.05;;
42690;SDS011;28306;55.744;37.578;2022-09-06T12:28:03;9.45;;;1.60;;
42690;SDS011;28306;55.744;37.578;2022-09-06T12:30:41;9.85;;;1.10;;
42690;SDS011;28306;55.744;37.578;2022-09-06T12:36:11;4.55;;;0.90;;
42690;SDS011;28306;55.744;37.578;2022-09-06T12:41:38;6.75;;;0.93;;
42690;SDS011;28306;55.744;37.578;2022-09-06T12:44:09;4.88;;;1.05;;
42690;SDS011;28306;55.744;37.578;2022-09-06T12:46:36;2.05;;;0.70;;
42690;SDS011;28306;55.744;37.578;2022-09-06T12:49:05;2.40;;;0.60;;
42690;SDS011;28306;55.744;37.578;2022-09-06T12:51:33;7.95;;;0.90;;
42690;SDS011;28306;55.744;37.578;2022-09-06T12:54:01;3.05;;;0.60;;
42690;SDS011;28306;55.744;37.578;2022-09-06T12:56:30;2.10;;;0.70;;
42690;SDS011;28306;55.744;37.578;2022-09-06T13:01:38;2.03;;;0.73;;
42690;SDS011;28306;55.744;37.578;2022-09-06T13:04:13;2.13;;;0.65;;
42690;SDS011;28306;55.744;37.578;2022-09-06T13:06:49;4.28;;;0.60;;
42690;SDS011;28306;55.744;37.578;2022-09-06T13:09:16;2.28;;;0.60;;
42690;SDS011;28306;55.744;37.578;2022-09-06T13:11:48;6.45;;;0.70;;
42690;SDS011;28306;55.744;37.578;2022-09-06T13:14:20;4.50;;;0.90;;
42690;SDS011;28306;55.744;37.578;2022-09-06T13:19:17;1.33;;;0.50;;
42690;SDS011;28306;55.744;37.578;2022-09-06T13:22:05;2.45;;;0.47;;
42690;SDS011;28306;55.744;37.578;2022-09-06T13:26:57;1.70;;;0.50;;
42690;SDS011;28306;55.744;37.578;2022-09-06T13:29:24;3.60;;;0.80;;
42690;SDS011;28306;55.744;37.578;2022-09-06T13:31:55;10.75;;;0.95;;
42690;SDS011;28306;55.744;37.578;2022-09-06T13:34:29;13.63;;;0.95;;
42690;SDS011;28306;55.744;37.578;2022-09-06T13:37:00;10.80;;;1.10;;
42690;SDS011;28306;55.744;37.578;2022-09-06T13:39:30;5.18;;;0.70;;
42690;SDS011;28306;55.744;37.578;2022-09-06T13:42:07;26.42;;;2.05;;
42690;SDS011;28306;55.744;37.578;2022-09-06T13:44:48;20.52;;;2.08;;
42690;SDS011;28306;55.744;37.578;2022-09-06T13:47:15;26.58;;;2.35;;
42690;SDS011;28306;55.744;37.578;2022-09-06T13:49:41;26.88;;;2.08;;
42690;SDS011;28306;55.744;37.578;2022-09-06T13:52:07;19.40;;;2.13;;
42690;SDS011;28306;55.744;37.578;2022-09-06T13:54:32;22.05;;;2.20;;
42690;SDS011;28306;55.744;37.578;2022-09-06T13:56:58;19.70;;;2.33;;
42690;SDS011;28306;55.744;37.578;2022-09-06T13:59:25;10.60;;;1.60;;
42690;SDS011;28306;55.744;37.578;2022-09-06T14:02:26;13.65;;;1.48;;
42690;SDS011;28306;55.744;37.578;2022-09-06T14:04:45;21.00;;;1.63;;
42690;SDS011;28306;55.744;37.578;2022-09-06T14:07:11;14.30;;;1.33;;
42690;SDS011;28306;55.744;37.578;2022-09-06T14:09:36;16.65;;;1.30;;
42690;SDS011;28306;55.744;37.578;2022-09-06T14:12:03;9.30;;;1.48;;
42690;SDS011;28306;55.744;37.578;2022-09-06T14:14:30;7.03;;;1.20;;
42690;SDS011;28306;55.744;37.578;2022-09-06T14:16:56;18.15;;;1.35;;
42690;SDS011;28306;55.744;37.578;2022-09-06T14:19:22;10.55;;;1.25;;
42690;SDS011;28306;55.744;37.578;2022-09-06T14:21:48;9.57;;;0.98;;
42690;SDS011;28306;55.744;37.578;2022-09-06T14:24:13;4.65;;;1.20;;
42690;SDS011;28306;55.744;37.578;2022-09-06T14:26:39;12.50;;;1.67;;
42690;SDS011;28306;55.744;37.578;2022-09-06T14:29:05;4.50;;;1.02;;
42690;SDS011;28306;55.744;37.578;2022-09-06T14:31:31;11.65;;;1.00;;
42690;SDS011;28306;55.744;37.578;2022-09-06T14:33:57;6.68;;;1.00;;
42690;SDS011;28306;55.744;37.578;2022-09-06T14:36:24;7.75;;;1.33;;
42690;SDS011;28306;55.744;37.578;2022-09-06T14:38:51;9.23;;;1.00;;
42690;SDS011;28306;55.744;37.578;2022-09-06T14:41:17;4.60;;;1.00;;
42690;SDS011;28306;55.744;37.578;2022-09-06T14:43:47;4.40;;;0.80;;
42690;SDS011;28306;55.744;37.578;2022-09-06T14:46:18;5.85;;;1.10;;
42690;SDS011;28306;55.744;37.578;2022-09-06T14:48:46;8.45;;;0.93;;
42690;SDS011;28306;55.744;37.578;2022-09-06T14:51:13;8.88;;;1.27;;
42690;SDS011;28306;55.744;37.578;2022-09-06T14:53:49;9.15;;;0.85;;
42690;SDS011;28306;55.744;37.578;2022-09-06T14:56:19;10.65;;;0.80;;
42690;SDS011;28306;55.744;37.578;2022-09-06T14:58:45;6.43;;;0.80;;
42690;SDS011;28306;55.744;37.578;2022-09-06T15:01:12;4.93;;;0.90;;
42690;SDS011;28306;55.744;37.578;2022-09-06T15:03:40;3.92;;;0.73;;
42690;SDS011;28306;55.744;37.578;2022-09-06T15:06:13;9.85;;;1.02;;
42690;SDS011;28306;55.744;37.578;2022-09-06T15:08:40;7.20;;;1.50;;
42690;SDS011;28306;55.744;37.578;2022-09-06T15:11:06;8.98;;;1.33;;
42690;SDS011;28306;55.744;37.578;2022-09-06T15:13:34;4.50;;;0.80;;
42690;SDS011;28306;55.744;37.578;2022-09-06T15:16:01;4.38;;;0.75;;
42690;SDS011;28306;55.744;37.578;2022-09-06T15:18:28;5.10;;;0.88;;
42690;SDS011;28306;55.744;37.578;2022-09-06T15:20:54;4.50;;;0.95;;
42690;SDS011;28306;55.744;37.578;2022-09-06T15:23:19;4.72;;;1.38;;
42690;SDS011;28306;55.744;37.578;2022-09-06T15:25:46;6.05;;;1.00;;
42690;SDS011;28306;55.744;37.578;2022-09-06T15:28:13;2.88;;;0.80;;
42690;SDS011;28306;55.744;37.578;2022-09-06T15:30:39;2.72;;;1.10;;
42690;SDS011;28306;55.744;37.578;2022-09-06T15:33:05;5.80;;;1.20;;
42690;SDS011;28306;55.744;37.578;2022-09-06T15:35:31;4.45;;;1.02;;
42690;SDS011;28306;55.744;37.578;2022-09-06T15:37:57;5.35;;;0.85;;
42690;SDS011;28306;55.744;37.578;2022-09-06T15:40:23;1.52;;;0.80;;
42690;SDS011;28306;55.744;37.578;2022-09-06T15:42:50;3.28;;;0.88;;
42690;SDS011;28306;55.744;37.578;2022-09-06T15:45:16;3.33;;;0.70;;
42690;SDS011;28306;55.744;37.578;2022-09-06T15:47:42;2.20;;;0.70;;
42690;SDS011;28306;55.744;37.578;2022-09-06T15:50:08;5.55;;;0.93;;
42690;SDS011;28306;55.744;37.578;2022-09-06T15:52:34;3.33;;;0.60;;
42690;SDS011;28306;55.744;37.578;2022-09-06T15:55:00;12.90;;;1.55;;
42690;SDS011;28306;55.744;37.578;2022-09-06T15:57:49;28.02;;;2.08;;
42690;SDS011;28306;55.744;37.578;2022-09-06T16:00:16;24.15;;;1.95;;
42690;SDS011;28306;55.744;37.578;2022-09-06T16:02:46;25.00;;;1.65;;
42690;SDS011;28306;55.744;37.578;2022-09-06T16:05:12;18.17;;;1.70;;
42690;SDS011;28306;55.744;37.578;2022-09-06T16:07:38;6.65;;;1.52;;
42690;SDS011;28306;55.744;37.578;2022-09-06T16:10:07;14.73;;;1.67;;
42690;SDS011;28306;55.744;37.578;2022-09-06T16:12:38;21.77;;;1.70;;
42690;SDS011;28306;55.744;37.578;2022-09-06T16:15:05;16.02;;;2.10;;
42690;SDS011;28306;55.744;37.578;2022-09-06T16:17:31;13.20;;;1.30;;
42690;SDS011;28306;55.744;37.578;2022-09-06T16:19:57;16.65;;;1.70;;
42690;SDS011;28306;55.744;37.578;2022-09-06T16:22:26;9.18;;;1.38;;
42690;SDS011;28306;55.744;37.578;2022-09-06T16:24:51;7.13;;;2.17;;
42690;SDS011;28306;55.744;37.578;2022-09-06T16:27:17;11.85;;;1.58;;
42690;SDS011;28306;55.744;37.578;2022-09-06T16:29:43;7.53;;;1.30;;
42690;SDS011;28306;55.744;37.578;2022-09-06T16:32:09;7.38;;;0.90;;
42690;SDS011;28306;55.744;37.578;2022-09-06T16:34:35;6.63;;;0.93;;
42690;SDS011;28306;55.744;37.578;2022-09-06T16:37:02;6.18;;;1.00;;
42690;SDS011;28306;55.744;37.578;2022-09-06T16:39:34;4.40;;;1.52;;
42690;SDS011;28306;55.744;37.578;2022-09-06T16:42:01;4.20;;;1.15;;
42690;SDS011;28306;55.744;37.578;2022-09-06T16:44:26;9.27;;;1.63;;
42690;SDS011;28306;55.744;37.578;2022-09-06T16:46:52;8.43;;;0.90;;
42690;SDS011;28306;55.744;37.578;2022-09-06T16:49:20;7.95;;;1.17;;